Snover, Michigan
Current Conditions -  °F | °C
As of 3:59 AM on Friday 24 Oct 2014 (Local Time) from KBAX Reporting Station
Haze Haze  
Wind Chill: 32°   Ceiling: 100
Heat Index: 32°   Visibility: 0.75mi
Dew Point: 32°   Wind: 0mph
Humidity: 100%   Direction: NA
Pressure: 30.07"   Gusts: NA
Location:  43.46°N, 82.97°W
Report Text: KBAX 240759Z AUTO 00000KT 3/4SM BR BKN001 00/00 A3007 RMK AO2 T00000000
Loading
Personal Weather Stations






























Interactive Weather Map New forecast layout! Learn more

10-Day Weather Forecast

Advertisements
Track Severe Weather on mobile